createdAt,value
2022-11-25T00:01:58.264Z,1.80
2022-11-25T00:04:29.154Z,2.10
2022-11-25T00:06:59.199Z,1.70
2022-11-25T00:09:29.191Z,1.50
2022-11-25T00:11:59.207Z,1.70
2022-11-25T00:14:31.785Z,1.60
2022-11-25T00:19:32.378Z,1.40
2022-11-25T00:22:02.465Z,1.30
2022-11-25T00:24:32.591Z,1.40
2022-11-25T00:27:04.944Z,1.70
2022-11-25T00:29:40.378Z,1.70
2022-11-25T00:32:10.551Z,1.50
2022-11-25T00:37:11.341Z,1.90
2022-11-25T00:42:25.196Z,1.80
2022-11-25T00:44:58.622Z,1.80
2022-11-25T00:47:29.527Z,1.50
2022-11-25T00:49:59.760Z,2.00
2022-11-25T00:52:30.770Z,1.60
2022-11-25T00:55:00.796Z,1.50
2022-11-25T00:57:30.772Z,1.50
2022-11-25T01:00:03.584Z,1.80
2022-11-25T01:02:33.696Z,1.80
2022-11-25T01:05:03.751Z,1.70
2022-11-25T01:07:33.817Z,1.30
2022-11-25T01:10:03.875Z,1.70
2022-11-25T01:12:33.838Z,1.30
2022-11-25T01:15:06.894Z,1.30
2022-11-25T01:17:37.866Z,1.50
2022-11-25T01:20:09.891Z,1.70
2022-11-25T01:22:39.949Z,0.90
2022-11-25T01:25:11.178Z,1.00
2022-11-25T01:30:19.770Z,1.20
2022-11-25T01:32:49.776Z,1.10
2022-11-25T01:35:19.786Z,1.20
2022-11-25T01:37:49.777Z,0.80
2022-11-25T01:40:20.019Z,0.90
2022-11-25T01:42:50.876Z,1.00
2022-11-25T01:45:38.342Z,-1.70
2022-11-25T01:48:17.142Z,0.80
2022-11-25T01:50:48.413Z,1.00
2022-11-25T01:53:21.413Z,0.90
2022-11-25T01:55:55.210Z,1.00
2022-11-25T01:58:29.653Z,1.20
2022-11-25T02:01:02.216Z,1.00
2022-11-25T02:03:37.586Z,0.90
2022-11-25T02:06:13.912Z,1.00
2022-11-25T02:08:46.270Z,0.90
2022-11-25T02:11:18.826Z,0.90
2022-11-25T02:13:51.631Z,0.60
2022-11-25T02:16:24.473Z,0.60
2022-11-25T02:18:55.287Z,1.00
2022-11-25T02:21:29.204Z,0.70
2022-11-25T02:24:03.883Z,0.80
2022-11-25T02:26:37.250Z,0.80
2022-11-25T02:29:09.700Z,0.70
2022-11-25T02:34:10.697Z,0.60
2022-11-25T02:36:40.905Z,0.20
2022-11-25T02:39:11.161Z,0.50
2022-11-25T02:41:46.674Z,0.60
2022-11-25T02:44:17.012Z,1.10
2022-11-25T02:46:47.170Z,0.40
2022-11-25T02:49:17.284Z,0.50
2022-11-25T02:51:48.162Z,0.30
2022-11-25T02:54:20.968Z,0.20
2022-11-25T02:56:54.810Z,0.20
2022-11-25T02:59:24.847Z,1.10
2022-11-25T03:04:28.836Z,0.50
2022-11-25T03:06:59.461Z,0.30
2022-11-25T03:09:29.610Z,0.60
2022-11-25T03:12:14.731Z,0.30
2022-11-25T03:14:44.851Z,0.20
2022-11-25T03:17:15.903Z,0.40
2022-11-25T03:19:46.005Z,0.20
2022-11-25T03:22:16.081Z,0.20
2022-11-25T03:27:19.711Z,0.30
2022-11-25T03:29:49.862Z,0.30
2022-11-25T03:32:20.052Z,0.10
2022-11-25T03:34:50.207Z,0.10
2022-11-25T03:37:20.417Z,0.40
2022-11-25T03:42:24.396Z,0.20
2022-11-25T03:47:24.784Z,0.40
2022-11-25T03:49:54.869Z,0.00
2022-11-25T03:52:25.089Z,0.20
2022-11-25T03:54:55.464Z,0.40
2022-11-25T03:57:31.504Z,0.20
2022-11-25T04:02:36.643Z,0.40
2022-11-25T04:05:07.014Z,0.50
2022-11-25T04:07:37.339Z,0.30
2022-11-25T04:10:11.360Z,0.40
2022-11-25T04:12:47.137Z,0.30
2022-11-25T04:17:59.410Z,0.30
2022-11-25T04:20:29.525Z,0.50
2022-11-25T04:23:06.324Z,0.60
2022-11-25T04:25:39.956Z,0.60
2022-11-25T04:28:17.879Z,0.50
2022-11-25T04:30:48.007Z,0.50
2022-11-25T04:35:50.728Z,0.40
2022-11-25T04:40:52.046Z,0.30
2022-11-25T04:43:28.211Z,0.50
2022-11-25T04:46:16.654Z,0.50
2022-11-25T04:48:50.675Z,0.50
2022-11-25T04:51:20.903Z,0.40
2022-11-25T04:53:54.924Z,0.30
2022-11-25T04:56:27.155Z,0.10
2022-11-25T04:59:13.791Z,0.20
2022-11-25T05:01:48.029Z,0.10
2022-11-25T05:04:31.542Z,0.00
2022-11-25T05:09:32.501Z,0.10
2022-11-25T05:12:11.808Z,0.10
2022-11-25T05:14:44.887Z,0.10
2022-11-25T05:17:17.195Z,0.10
2022-11-25T05:19:48.195Z,-0.10
2022-11-25T05:22:20.883Z,-0.30
2022-11-25T05:24:51.290Z,-0.20
2022-11-25T05:27:23.135Z,-0.10
2022-11-25T05:29:56.445Z,0.00
2022-11-25T05:32:27.826Z,0.10
2022-11-25T05:35:01.374Z,0.10
2022-11-25T05:37:31.456Z,-0.20
2022-11-25T05:40:09.110Z,-0.10
2022-11-25T05:42:57.884Z,0.00
2022-11-25T05:45:30.598Z,0.00
2022-11-25T05:48:01.586Z,0.80
2022-11-25T05:55:59.007Z,0.90
2022-11-25T06:01:25.086Z,-0.10
2022-11-25T06:03:55.213Z,0.00
2022-11-25T06:06:25.408Z,-0.10
2022-11-25T06:08:55.666Z,0.00
2022-11-25T06:11:27.290Z,-0.10
2022-11-25T06:13:59.856Z,-0.10
2022-11-25T06:16:33.209Z,-0.40
2022-11-25T06:19:12.560Z,-0.10
2022-11-25T06:24:13.044Z,0.60
2022-11-25T06:26:45.108Z,-0.10
2022-11-25T06:29:15.459Z,0.00
2022-11-25T06:31:52.521Z,0.00
2022-11-25T06:37:37.441Z,-0.20
2022-11-25T06:40:09.571Z,0.00
2022-11-25T06:42:43.396Z,-0.10
2022-11-25T06:45:14.227Z,0.00
2022-11-25T06:47:46.871Z,0.20
2022-11-25T06:50:16.990Z,0.40
2022-11-25T06:57:47.602Z,0.00
2022-11-25T07:00:19.096Z,0.20
2022-11-25T07:02:51.810Z,0.10
2022-11-25T07:05:22.000Z,0.10
2022-11-25T07:07:52.186Z,0.00
2022-11-25T07:10:22.501Z,0.10
2022-11-25T07:12:53.064Z,0.20
2022-11-25T07:15:23.813Z,0.00
2022-11-25T07:17:56.402Z,0.10
2022-11-25T07:20:27.937Z,0.10
2022-11-25T07:25:30.841Z,-0.10
2022-11-25T07:28:01.108Z,0.10
2022-11-25T07:33:24.187Z,0.20
2022-11-25T07:35:54.239Z,0.30
2022-11-25T07:38:24.274Z,0.30
2022-11-25T07:40:54.354Z,0.40
2022-11-25T07:48:27.537Z,0.40
2022-11-25T07:50:57.625Z,1.60
2022-11-25T07:53:27.668Z,0.60
2022-11-25T07:55:57.669Z,0.70
2022-11-25T08:03:30.908Z,0.40
2022-11-25T08:06:03.613Z,0.20
2022-11-25T08:08:33.735Z,-0.20
2022-11-25T08:11:04.693Z,0.50
2022-11-25T08:18:38.001Z,0.80
2022-11-25T08:21:09.963Z,0.20
2022-11-25T08:23:43.297Z,0.90
2022-11-25T08:26:15.038Z,1.00
2022-11-25T08:31:18.351Z,1.00
2022-11-25T08:33:51.830Z,1.30
2022-11-25T08:36:23.093Z,1.20
2022-11-25T08:38:57.575Z,1.30
2022-11-25T08:41:28.857Z,1.40
2022-11-25T08:43:59.959Z,1.50
2022-11-25T08:46:34.303Z,1.20
2022-11-25T08:49:07.879Z,1.60
2022-11-25T08:51:40.190Z,1.70
2022-11-25T08:54:11.311Z,1.90
2022-11-25T08:56:41.303Z,1.80
2022-11-25T09:01:41.637Z,1.90
2022-11-25T09:04:14.293Z,1.90
2022-11-25T09:06:44.337Z,2.20
2022-11-25T09:09:14.347Z,2.40
2022-11-25T09:11:44.440Z,2.30
2022-11-25T09:16:45.587Z,2.40
2022-11-25T09:19:18.333Z,2.60
2022-11-25T09:21:48.417Z,2.70
2022-11-25T09:24:18.412Z,2.60
2022-11-25T09:26:49.427Z,2.80
2022-11-25T09:29:19.606Z,2.50
2022-11-25T09:31:54.811Z,2.80
2022-11-25T09:34:27.901Z,2.90
2022-11-25T09:42:24.478Z,3.30
2022-11-25T09:45:18.433Z,3.40
2022-11-25T09:47:57.999Z,3.50
2022-11-25T09:50:47.677Z,3.60
2022-11-25T09:53:36.152Z,3.90
2022-11-25T09:56:09.496Z,4.60
2022-11-25T09:58:44.076Z,4.10
2022-11-25T10:01:19.781Z,4.10
2022-11-25T10:03:55.515Z,4.20
2022-11-25T10:06:30.129Z,4.30
2022-11-25T10:09:03.426Z,4.70
2022-11-25T10:11:51.269Z,4.30
2022-11-25T10:14:31.159Z,4.40
2022-11-25T10:17:08.662Z,5.00
2022-11-25T10:19:46.537Z,5.30
2022-11-25T10:22:29.578Z,5.50
2022-11-25T10:25:03.006Z,6.00
2022-11-25T10:27:43.981Z,5.90
2022-11-25T10:30:19.715Z,5.80
2022-11-25T10:32:59.203Z,6.20
2022-11-25T10:35:36.331Z,6.60
2022-11-25T10:38:19.023Z,6.80
2022-11-25T10:40:52.998Z,7.10
2022-11-25T10:43:27.308Z,7.20
2022-11-25T10:46:11.353Z,7.50
2022-11-25T10:48:56.985Z,7.50
2022-11-25T10:51:39.218Z,7.50
2022-11-25T10:54:27.303Z,7.80
2022-11-25T10:56:59.669Z,7.80
2022-11-25T10:59:32.271Z,7.30
2022-11-25T11:02:20.362Z,7.20
2022-11-25T11:04:59.936Z,7.00
2022-11-25T11:07:33.163Z,6.90
2022-11-25T11:10:21.893Z,6.80
2022-11-25T11:13:00.425Z,6.70
2022-11-25T11:15:32.772Z,6.70
2022-11-25T11:18:16.858Z,6.50
2022-11-25T11:20:49.699Z,7.20
2022-11-25T11:26:02.187Z,6.70
2022-11-25T11:28:43.001Z,6.40
2022-11-25T11:31:22.933Z,6.30
2022-11-25T11:34:01.266Z,6.30
2022-11-25T11:36:50.997Z,6.30
2022-11-25T11:39:35.969Z,6.30
2022-11-25T11:42:16.439Z,6.40
2022-11-25T11:45:04.075Z,6.60
2022-11-25T11:47:42.967Z,6.40
2022-11-25T11:50:34.126Z,6.20
2022-11-25T11:53:24.105Z,6.50
2022-11-25T11:56:33.105Z,6.70
2022-11-25T11:59:04.626Z,6.50
2022-11-25T12:01:46.525Z,6.40
2022-11-25T12:04:21.603Z,6.20
2022-11-25T12:07:06.348Z,6.40
2022-11-25T12:09:43.189Z,6.60
2022-11-25T12:12:19.283Z,6.50
2022-11-25T12:14:54.849Z,6.60
2022-11-25T12:17:33.102Z,6.50
2022-11-25T12:20:10.232Z,6.40
2022-11-25T12:22:50.049Z,6.40
2022-11-25T12:25:25.127Z,6.90
2022-11-25T12:28:00.845Z,6.40
2022-11-25T12:30:40.025Z,6.20
2022-11-25T12:33:17.484Z,6.20
2022-11-25T12:35:58.117Z,6.20
2022-11-25T12:38:40.176Z,6.20
2022-11-25T12:41:22.236Z,5.90
2022-11-25T12:43:57.696Z,6.10
2022-11-25T12:46:38.213Z,6.10
2022-11-25T12:49:13.157Z,6.10
2022-11-25T12:52:02.314Z,6.20
2022-11-25T12:54:56.370Z,6.10
2022-11-25T12:57:50.108Z,6.10
2022-11-25T13:00:42.225Z,6.50
2022-11-25T13:03:39.458Z,6.10
2022-11-25T13:06:34.762Z,6.10
2022-11-25T13:09:16.416Z,6.20
2022-11-25T13:12:14.299Z,6.40
2022-11-25T13:15:10.629Z,5.90
2022-11-25T13:17:44.487Z,6.20
2022-11-25T13:20:53.552Z,6.00
2022-11-25T13:23:31.257Z,5.80
2022-11-25T13:26:40.212Z,6.10
2022-11-25T13:30:00.814Z,6.00
2022-11-25T13:32:39.031Z,6.00
2022-11-25T13:35:51.042Z,5.70
2022-11-25T13:38:59.755Z,6.00
2022-11-25T13:41:44.771Z,5.90
2022-11-25T13:44:29.736Z,5.40
2022-11-25T13:47:02.862Z,5.80
2022-11-25T13:49:41.226Z,6.00
2022-11-25T13:52:37.869Z,8.40
2022-11-25T13:55:24.805Z,5.60
2022-11-25T13:58:10.481Z,6.00
2022-11-25T14:01:27.854Z,5.70
2022-11-25T14:04:02.645Z,5.50
2022-11-25T14:07:05.693Z,5.70
2022-11-25T14:09:57.442Z,5.60
2022-11-25T14:12:55.986Z,5.50
2022-11-25T14:15:50.458Z,5.20
2022-11-25T14:19:21.653Z,5.10
2022-11-25T14:22:01.708Z,5.40
2022-11-25T14:24:37.004Z,5.10
2022-11-25T14:27:18.201Z,5.30
2022-11-25T14:29:54.142Z,5.90
2022-11-25T14:32:29.130Z,5.50
2022-11-25T14:35:07.061Z,5.30
2022-11-25T14:37:44.536Z,5.30
2022-11-25T14:40:20.740Z,5.30
2022-11-25T14:43:00.982Z,5.70
2022-11-25T14:45:33.467Z,5.30
2022-11-25T14:48:16.564Z,5.50
2022-11-25T14:50:58.043Z,5.20
2022-11-25T14:53:28.478Z,5.20
2022-11-25T14:56:00.845Z,5.30
2022-11-25T14:58:33.895Z,5.50
2022-11-25T15:01:07.646Z,5.40
2022-11-25T15:06:09.457Z,4.70
2022-11-25T15:08:44.285Z,5.10
2022-11-25T15:11:19.166Z,4.70
2022-11-25T15:13:56.567Z,5.10
2022-11-25T15:16:33.649Z,5.10
2022-11-25T15:19:05.635Z,4.70
2022-11-25T15:22:00.068Z,5.40
2022-11-25T15:24:30.339Z,5.00
2022-11-25T15:27:02.640Z,4.70
2022-11-25T15:29:44.558Z,5.00
2022-11-25T15:32:19.635Z,4.70
2022-11-25T15:34:50.654Z,5.00
2022-11-25T15:39:51.258Z,5.30
2022-11-25T15:42:24.704Z,5.00
2022-11-25T15:45:07.187Z,5.00
2022-11-25T15:47:38.906Z,5.30
2022-11-25T15:50:20.789Z,5.00
2022-11-25T15:52:54.361Z,5.10
2022-11-25T15:55:33.684Z,5.00
2022-11-25T15:58:09.240Z,5.00
2022-11-25T16:00:42.472Z,5.20
2022-11-25T16:03:24.143Z,5.20
2022-11-25T16:05:58.451Z,5.00
2022-11-25T16:08:37.775Z,5.00
2022-11-25T16:11:19.382Z,4.70
2022-11-25T16:16:28.879Z,5.00
2022-11-25T16:19:22.096Z,5.00
2022-11-25T16:22:02.761Z,4.70
2022-11-25T16:24:48.774Z,5.00
2022-11-25T16:27:30.143Z,5.10
2022-11-25T16:30:10.964Z,5.10
2022-11-25T16:32:43.590Z,5.00
2022-11-25T16:35:16.517Z,5.10
2022-11-25T16:37:49.256Z,5.00
2022-11-25T17:18:11.103Z,5.10
2022-11-25T17:20:40.956Z,5.10
2022-11-25T17:25:48.793Z,5.00
2022-11-25T17:28:20.764Z,5.10
2022-11-25T20:51:18.539Z,4.80
2022-11-25T20:53:51.471Z,4.70
2022-11-25T21:31:46.325Z,4.70
2022-11-25T21:42:04.961Z,4.70
2022-11-25T21:44:38.492Z,4.70
2022-11-25T22:04:55.046Z,4.80
2022-11-25T22:43:14.914Z,4.70
2022-11-25T22:48:19.004Z,4.70
2022-11-25T22:58:28.986Z,4.70
2022-11-25T23:39:03.268Z,4.80
